Augusta Regional At Bush Field
KAGS : rendu visible

Aérodrome :











RETROUVEZ-NOUS SUR...

 
LOGIN :

S'inscrire | Disclaimer

   EN    FR    IT 

 









Légende :    VFR   VFR Marginal   IFR   IFR Intensif   IFR Très Intensif
Visi : 
Plafond : 
>= 8 km
>= 3000ft
5 à 8 km
1000 à 3000 ft
1500m à 5 km
500 à 1000 ft
800 à 1500m
200 à 500 ft
< 800m
< 200 ft
Symboles :   Orages  Brouillard  Fortes neiges  Fortes précipitations  Vent > 20 kt






- Altitude de l'aérodrome : 144 ft
- Code IATA : AGS


KAGS - Augusta Regional At Bush Field

DERNIER METAR :
  • 300313Z AUTO 27006KT 1 1/4SM +TSRA BR OVC036 24/23 A3005 RMK AO2 LTG DSNT E AND W RAB0254 TSB0259 P0015 T02390228

METARs EXPIRÉS :
  • 300304Z AUTO 17004KT 2 1/2SM +TSRA BR BKN037 OVC050 24/23 A3005 RMK AO2 LTG DSNT E AND W RAB0254 TSB0259 P0001 T02390228
  • 300253Z AUTO 14003KT 9SM BKN039 OVC065 24/23 A3004 RMK AO2 LTG DSNT E AND W AND NW RAB0158E46 SLP171 P0010 60010 T02390228 53018
  • 300153Z AUTO 35005KT 10SM BKN050 BKN065 OVC080 26/22 A3002 RMK AO2 SLP162 T02610217
  • 300053Z AUTO 21005KT 10SM CLR 26/23 A3001 RMK AO2 SLP159 T02560228

TAF KAGS
Valide du 30 à 03h jusqu'au 31 à 00h UTC


300314Z 3003/3024 18005KT P6SM VCTS BKN040CB
TEMPO 3003/3005 VRB15G25KT 1/2SM +TSRA BKN025CB OVC060
FM300600 VRB03KT P6SM VCSH OVC040
FM301000 VRB03KT 4SM BR OVC007
FM301400 26005KT P6SM SCT250
FM301800 26005KT P6SM VCSH SCT035 BKN090
FIR KZTL / Amérique du Nord



MET'MAP, la Météo Aéronautique d'un coup d'oeil ! - Copyright ORBIFLY Décembre 2007 - Disclaimer

ORBIFLY MET'MAP TEAM :

Programmation & Développement : Alexandra Zaïnal
Sur une idée originale de : Baudouin d'Aumeries
Assistance à la programmation : Marc-Olivier Méhu
Soutien technique & logistique : Manuel Goepfert

Contact : metmap@orbifly.com




SOURCES & CREDITS :

   NOAA       Earth
Advisory